createdAt,value
2022-08-30T00:01:14.418Z,17.20
2022-08-30T00:05:17.538Z,17.20
2022-08-30T00:09:21.363Z,17.30
2022-08-30T00:13:25.035Z,17.20
2022-08-30T00:17:29.249Z,17.20
2022-08-30T00:21:32.838Z,17.20
2022-08-30T00:25:35.682Z,17.20
2022-08-30T00:29:38.547Z,17.20
2022-08-30T00:33:42.705Z,17.20
2022-08-30T00:37:45.525Z,17.20
2022-08-30T00:41:48.976Z,17.10
2022-08-30T00:45:52.355Z,17.10
2022-08-30T00:49:57.216Z,17.10
2022-08-30T00:54:00.475Z,17.10
2022-08-30T00:58:05.110Z,17.10
2022-08-30T01:02:08.265Z,17.00
2022-08-30T01:06:15.611Z,17.00
2022-08-30T01:10:18.918Z,16.90
2022-08-30T01:14:25.959Z,16.80
2022-08-30T01:18:29.675Z,16.80
2022-08-30T01:22:37.664Z,16.80
2022-08-30T01:26:41.852Z,16.70
2022-08-30T01:30:44.889Z,16.60
2022-08-30T01:34:49.004Z,16.50
2022-08-30T01:38:52.815Z,16.50
2022-08-30T01:42:56.968Z,16.40
2022-08-30T01:46:59.790Z,16.30
2022-08-30T01:51:02.631Z,16.30
2022-08-30T01:55:06.466Z,16.20
2022-08-30T01:59:10.925Z,16.20
2022-08-30T02:03:13.836Z,16.10
2022-08-30T02:07:17.430Z,16.10
2022-08-30T02:11:20.278Z,16.00
2022-08-30T02:15:24.459Z,16.00
2022-08-30T02:19:27.316Z,15.90
2022-08-30T02:23:31.196Z,15.90
2022-08-30T02:27:34.087Z,15.80
2022-08-30T02:31:38.267Z,15.70
2022-08-30T02:35:41.138Z,15.70
2022-08-30T02:39:43.963Z,15.70
2022-08-30T02:43:47.042Z,15.60
2022-08-30T02:47:51.923Z,15.50
2022-08-30T02:51:54.740Z,15.50
2022-08-30T02:55:57.889Z,15.40
2022-08-30T03:00:01.354Z,15.30
2022-08-30T03:04:05.835Z,15.30
2022-08-30T03:08:09.243Z,15.20
2022-08-30T03:12:12.323Z,15.20
2022-08-30T03:16:16.075Z,15.10
2022-08-30T03:20:20.672Z,15.10
2022-08-30T03:24:23.565Z,15.10
2022-08-30T03:28:26.392Z,15.10
2022-08-30T03:32:29.202Z,15.10
2022-08-30T03:36:33.708Z,15.20
2022-08-30T03:40:37.191Z,15.20
2022-08-30T03:44:42.004Z,15.20
2022-08-30T03:48:44.981Z,15.30
2022-08-30T03:52:50.921Z,15.30
2022-08-30T03:56:53.903Z,15.30
2022-08-30T04:00:56.857Z,15.30
2022-08-30T04:04:59.736Z,15.30
2022-08-30T04:09:04.131Z,15.30
2022-08-30T04:13:07.174Z,15.30
2022-08-30T04:17:10.299Z,15.30
2022-08-30T04:21:14.221Z,15.30
2022-08-30T04:25:18.664Z,15.30
2022-08-30T04:29:21.536Z,15.30
2022-08-30T04:33:24.730Z,15.20
2022-08-30T04:37:28.487Z,15.20
2022-08-30T04:41:32.663Z,15.20
2022-08-30T04:45:35.551Z,15.30
2022-08-30T04:49:38.431Z,15.30
2022-08-30T04:53:41.662Z,15.30
2022-08-30T04:57:45.804Z,15.30
2022-08-30T05:01:48.729Z,15.30
2022-08-30T05:05:51.968Z,15.30
2022-08-30T05:09:54.864Z,15.30
2022-08-30T05:13:59.977Z,15.30
2022-08-30T05:18:02.799Z,15.30
2022-08-30T05:22:05.744Z,15.30
2022-08-30T05:26:09.504Z,15.30
2022-08-30T05:30:14.281Z,15.30
2022-08-30T05:34:17.254Z,15.30
2022-08-30T05:38:20.058Z,15.30
2022-08-30T05:42:25.149Z,15.30
2022-08-30T05:50:40.917Z,15.30
2022-08-30T05:54:43.728Z,15.30
2022-08-30T05:58:46.613Z,15.30
2022-08-30T06:02:54.488Z,15.40
2022-08-30T06:06:57.376Z,15.40
2022-08-30T06:11:00.222Z,15.40
2022-08-30T06:15:03.066Z,15.40
2022-08-30T06:19:08.406Z,15.40
2022-08-30T06:23:11.509Z,15.50
2022-08-30T06:27:14.345Z,15.50
2022-08-30T06:31:17.939Z,15.60
2022-08-30T06:35:22.218Z,15.60
2022-08-30T06:39:25.039Z,15.70
2022-08-30T06:43:27.836Z,15.80
2022-08-30T06:47:30.880Z,16.00
2022-08-30T06:51:36.162Z,16.10
2022-08-30T06:55:39.208Z,16.30
2022-08-30T06:59:42.031Z,16.30
2022-08-30T07:03:46.926Z,16.40
2022-08-30T07:07:53.244Z,16.60
2022-08-30T07:11:56.092Z,16.70
2022-08-30T07:15:59.984Z,16.80
2022-08-30T07:20:03.273Z,16.90
2022-08-30T07:24:08.917Z,17.00
2022-08-30T07:28:12.051Z,17.10
2022-08-30T07:32:14.892Z,17.20
2022-08-30T07:36:18.410Z,17.30
2022-08-30T07:40:23.019Z,17.40
2022-08-30T07:44:26.279Z,17.60
2022-08-30T07:48:29.071Z,17.70
2022-08-30T07:52:32.266Z,17.70
2022-08-30T07:56:37.533Z,17.80
2022-08-30T08:00:42.661Z,17.80
2022-08-30T08:04:45.551Z,17.90
2022-08-30T08:08:48.420Z,17.90
2022-08-30T08:12:52.588Z,18.00
2022-08-30T08:16:55.410Z,18.00
2022-08-30T08:20:58.246Z,18.10
2022-08-30T08:25:01.352Z,18.20
2022-08-30T08:29:06.233Z,18.30
2022-08-30T08:33:09.555Z,18.30
2022-08-30T08:37:12.480Z,18.40
2022-08-30T08:41:22.675Z,18.40
2022-08-30T08:45:32.375Z,18.50
2022-08-30T08:49:36.473Z,18.50
2022-08-30T08:53:47.188Z,18.60
2022-08-30T08:57:52.444Z,18.70
2022-08-30T09:02:00.854Z,18.70
2022-08-30T09:06:04.470Z,18.80
2022-08-30T09:10:07.592Z,19.00
2022-08-30T09:14:13.986Z,19.00
2022-08-30T09:18:19.630Z,19.20
2022-08-30T09:22:26.448Z,19.30
2022-08-30T09:26:30.207Z,19.30
2022-08-30T09:30:33.433Z,19.40
2022-08-30T09:34:38.202Z,19.60
2022-08-30T09:38:41.143Z,19.60
2022-08-30T09:42:59.809Z,19.80
2022-08-30T09:47:04.533Z,19.90
2022-08-30T09:51:20.075Z,20.10
2022-08-30T09:55:31.010Z,20.40
2022-08-30T09:59:40.411Z,20.70
2022-08-30T10:03:45.652Z,20.90
2022-08-30T10:07:55.755Z,21.10
2022-08-30T10:12:04.040Z,21.30
2022-08-30T10:16:12.697Z,21.40
2022-08-30T10:20:21.802Z,21.50
2022-08-30T10:24:33.213Z,21.60
2022-08-30T10:28:40.980Z,21.80
2022-08-30T10:32:47.645Z,22.20
2022-08-30T10:36:54.964Z,22.50
2022-08-30T10:41:17.204Z,22.90
2022-08-30T10:45:20.545Z,22.90
2022-08-30T10:49:23.946Z,23.30
2022-08-30T10:53:31.040Z,23.50
2022-08-30T10:57:35.186Z,23.80
2022-08-30T11:01:46.328Z,24.10
2022-08-30T11:06:04.204Z,24.40
2022-08-30T11:10:13.618Z,24.60
2022-08-30T11:14:19.027Z,24.90
2022-08-30T11:18:22.320Z,25.10
2022-08-30T11:22:28.724Z,25.30
2022-08-30T11:26:50.115Z,25.50
2022-08-30T11:31:04.451Z,25.80
2022-08-30T11:35:11.248Z,25.90
2022-08-30T11:39:34.407Z,26.10
2022-08-30T11:43:50.189Z,26.20
2022-08-30T11:47:55.160Z,26.30
2022-08-30T11:52:27.220Z,26.40
2022-08-30T11:56:35.263Z,26.60
2022-08-30T12:00:39.706Z,26.80
2022-08-30T12:04:46.433Z,26.90
2022-08-30T12:09:02.119Z,27.10
2022-08-30T12:13:06.433Z,27.20
2022-08-30T12:17:33.260Z,27.30
2022-08-30T12:21:44.820Z,27.40
2022-08-30T12:25:48.223Z,27.60
2022-08-30T12:29:52.016Z,27.60
2022-08-30T12:33:56.657Z,27.70
2022-08-30T12:38:06.393Z,27.70
2022-08-30T12:42:17.614Z,27.80
2022-08-30T12:46:21.697Z,27.90
2022-08-30T12:50:25.592Z,27.90
2022-08-30T12:54:31.846Z,27.90
2022-08-30T12:58:39.348Z,28.00
2022-08-30T13:02:43.861Z,27.90
2022-08-30T13:06:50.444Z,27.90
2022-08-30T13:10:56.231Z,27.90
2022-08-30T13:15:10.560Z,27.80
2022-08-30T13:19:28.859Z,27.70
2022-08-30T13:23:31.648Z,27.70
2022-08-30T13:27:37.240Z,27.70
2022-08-30T13:31:40.143Z,27.60
2022-08-30T13:35:43.697Z,27.60
2022-08-30T13:39:46.500Z,27.60
2022-08-30T13:48:17.519Z,27.50
2022-08-30T13:52:27.795Z,27.50
2022-08-30T13:56:32.120Z,27.50
2022-08-30T14:00:37.717Z,27.40
2022-08-30T14:04:40.827Z,27.40
2022-08-30T14:08:46.353Z,27.40
2022-08-30T14:12:53.220Z,27.40
2022-08-30T14:17:01.328Z,27.40
2022-08-30T14:21:04.256Z,27.40
2022-08-30T14:25:08.934Z,27.40
2022-08-30T14:29:12.903Z,27.40
2022-08-30T14:33:17.263Z,27.40
2022-08-30T14:37:21.144Z,27.50
2022-08-30T14:41:23.983Z,27.50
2022-08-30T16:35:08.312Z,30.30
2022-08-30T16:39:13.516Z,30.10
2022-08-30T16:43:16.359Z,30.00
2022-08-30T16:47:19.248Z,29.70
2022-08-30T16:51:24.547Z,29.50
2022-08-30T16:55:28.011Z,29.20
2022-08-30T16:59:30.911Z,29.00
2022-08-30T17:03:34.515Z,28.60
2022-08-30T17:07:38.706Z,28.30
2022-08-30T17:11:42.224Z,28.00
2022-08-30T17:15:46.050Z,27.70
2022-08-30T17:19:48.964Z,27.50
2022-08-30T17:23:53.179Z,27.10
2022-08-30T17:27:56.566Z,26.90
2022-08-30T17:31:59.675Z,26.60
2022-08-30T17:36:03.428Z,26.40
2022-08-30T17:40:14.406Z,26.10
2022-08-30T17:44:17.674Z,25.90
2022-08-30T17:48:21.442Z,25.60
2022-08-30T17:52:26.289Z,25.40
2022-08-30T17:56:35.478Z,25.20
2022-08-30T18:00:38.659Z,25.00
2022-08-30T18:04:42.128Z,24.90
2022-08-30T18:08:44.995Z,24.70
2022-08-30T18:12:49.272Z,24.50
2022-08-30T18:16:54.691Z,24.30
2022-08-30T18:20:57.852Z,24.20
2022-08-30T18:25:02.718Z,24.00
2022-08-30T18:29:07.091Z,23.90
2022-08-30T18:33:09.943Z,23.70
2022-08-30T18:37:13.589Z,23.60
2022-08-30T18:41:19.385Z,23.50
2022-08-30T18:45:24.133Z,23.40
2022-08-30T18:49:27.527Z,23.20
2022-08-30T18:53:30.439Z,23.10
2022-08-30T18:57:34.178Z,23.00
2022-08-30T19:01:40.421Z,22.90
2022-08-30T19:05:43.670Z,22.80
2022-08-30T19:09:46.866Z,22.70
2022-08-30T19:13:51.437Z,22.60
2022-08-30T19:17:56.416Z,22.50
2022-08-30T19:21:59.658Z,22.40
2022-08-30T19:26:02.993Z,22.30
2022-08-30T19:30:06.336Z,22.20
2022-08-30T19:34:10.564Z,22.10
2022-08-30T19:38:13.397Z,22.10
2022-08-30T19:42:16.340Z,22.00
2022-08-30T19:46:19.425Z,21.90
2022-08-30T19:50:23.852Z,21.90
2022-08-30T19:54:26.890Z,21.80
2022-08-30T19:58:30.228Z,21.80
2022-08-30T20:02:33.978Z,21.70
2022-08-30T20:06:38.130Z,21.60
2022-08-30T20:10:45.937Z,21.60
2022-08-30T20:14:48.779Z,21.50
2022-08-30T20:18:53.525Z,21.40
2022-08-30T20:22:57.688Z,21.30
2022-08-30T20:27:00.635Z,21.30
2022-08-30T20:31:04.698Z,21.20
2022-08-30T20:35:08.401Z,21.10
2022-08-30T20:39:17.351Z,21.10
2022-08-30T20:43:22.307Z,21.00
2022-08-30T20:47:25.560Z,20.90
2022-08-30T20:51:28.699Z,20.80
2022-08-30T20:55:33.795Z,20.80
2022-08-30T20:59:37.581Z,20.70
2022-08-30T21:03:40.909Z,20.60
2022-08-30T21:07:43.781Z,20.50
2022-08-30T21:11:48.005Z,20.40
2022-08-30T21:15:52.701Z,20.40
2022-08-30T21:19:57.539Z,20.30
2022-08-30T21:24:01.334Z,20.20
2022-08-30T21:28:05.614Z,20.20
2022-08-30T21:32:08.813Z,20.10
2022-08-30T21:36:29.522Z,20.00
2022-08-30T21:40:33.494Z,19.90
2022-08-30T21:44:37.696Z,19.90
2022-08-30T21:48:40.569Z,19.80
2022-08-30T21:52:43.335Z,19.70
2022-08-30T21:56:48.061Z,19.60
2022-08-30T22:00:54.488Z,19.60
2022-08-30T22:04:57.359Z,19.50
2022-08-30T22:09:01.173Z,19.40
2022-08-30T22:13:03.963Z,19.30
2022-08-30T22:17:08.564Z,19.20
2022-08-30T22:21:12.252Z,19.10
2022-08-30T22:25:15.232Z,19.00
2022-08-30T22:29:18.147Z,18.90
2022-08-30T22:33:22.298Z,18.90
2022-08-30T22:37:25.111Z,18.80
2022-08-30T22:41:31.215Z,18.80
2022-08-30T22:45:34.389Z,18.70
2022-08-30T22:49:38.564Z,18.60
2022-08-30T22:53:41.904Z,18.60
2022-08-30T22:57:44.711Z,18.50
2022-08-30T23:01:47.557Z,18.40
2022-08-30T23:05:51.752Z,18.40
2022-08-30T23:09:54.564Z,18.30
2022-08-30T23:13:57.452Z,18.20
2022-08-30T23:18:00.246Z,18.20
2022-08-30T23:22:04.390Z,18.10
2022-08-30T23:26:24.858Z,18.10
2022-08-30T23:30:45.052Z,18.00
2022-08-30T23:35:05.298Z,18.00
2022-08-30T23:39:27.350Z,18.00
2022-08-30T23:43:47.491Z,17.90
2022-08-30T23:48:07.759Z,17.90
2022-08-30T23:52:27.978Z,17.90
2022-08-30T23:56:49.669Z,17.90
